Skiathos, Greece
Current Conditions -  °F | °C
As of 9:50 PM on Saturday 25 Oct 2014 (Local Time) from LGBL Reporting Station
Broken Clouds Broken Clouds  
Wind Chill: 55°   Ceiling: 3000
Heat Index: 55°   Visibility: 6mi
Dew Point: 45°   Wind: 2mph
Humidity: 67%   Direction: NA
Pressure: 29.97"   Gusts: NA
Location:  39.17°N, 23.48°E
Report Text: LGBL 251850Z VRB02KT 9999 BKN030 SCT080 13/07 Q1015
Loading
Personal Weather Stations






























Interactive Weather Map
Tropical Storm Tracking
New forecast layout! Learn more

10-Day Weather Forecast

Advertisements
Track Severe Weather on mobile